GAF881 EDDS-EDDH
Flight info
| Callsign | GAF881 |
|---|---|
| Flight time | 1h 9m |
| Altitude | 40000 |
| Route | OKIBA4H OKIBA N851 RIMKI Z99 LOHRE/N0453F410 DCT MASEK DCT ELNAT/N0447F400 P605 NOLGO NOLGO6A |
| Aircraft | A343/H-SDE2E3FGHIJ4J5M1RWXY/LB1D1 |
Departure
| Time | 2026-04-30 19:50 |
|---|---|
| Airport | Stuttgart Airport (EDDS) |
Arrival
| Time | 2026-04-30 20:59 |
|---|---|
| Airport | Hamburg Helmut Schmidt Airport (EDDH) |
| Time | Latitude | Longitude | Altitude | Speed | Heading |
|---|---|---|---|---|---|
| 2026-04-30 19:07 | 48.69091 | 9.20170 | 1305 ft | 0 kts | 344° |
| 2026-04-30 19:38 | 48.69090 | 9.20170 | 1305 ft | 0 kts | 344° |
| 2026-04-30 19:38 | 48.69078 | 9.20175 | 1305 ft | 3 kts | 344° |
| 2026-04-30 19:39 | 48.69058 | 9.20184 | 1304 ft | 3 kts | 344° |
| 2026-04-30 19:39 | 48.69041 | 9.20191 | 1304 ft | 3 kts | 3° |
| 2026-04-30 19:39 | 48.69024 | 9.20184 | 1303 ft | 3 kts | 43° |
| 2026-04-30 19:39 | 48.69012 | 9.20161 | 1303 ft | 3 kts | 66° |
| 2026-04-30 19:40 | 48.69007 | 9.20144 | 1304 ft | 0 kts | 74° |
| 2026-04-30 19:40 | 48.69007 | 9.20143 | 1304 ft | 2 kts | 74° |
| 2026-04-30 19:45 | 48.69011 | 9.20161 | 1303 ft | 5 kts | 75° |
| 2026-04-30 19:45 | 48.69034 | 9.20289 | 1299 ft | 19 kts | 74° |
| 2026-04-30 19:46 | 48.69059 | 9.20450 | 1292 ft | 1 kts | 102° |
| 2026-04-30 19:46 | 48.69043 | 9.20495 | 1290 ft | 12 kts | 124° |
| 2026-04-30 19:46 | 48.68970 | 9.20590 | 1290 ft | 12 kts | 170° |
| 2026-04-30 19:46 | 48.68937 | 9.20568 | 1287 ft | 5 kts | 237° |
| 2026-04-30 19:47 | 48.68897 | 9.20350 | 1291 ft | 29 kts | 253° |
| 2026-04-30 19:47 | 48.68859 | 9.20151 | 1296 ft | 29 kts | 254° |
| 2026-04-30 19:47 | 48.68757 | 9.19962 | 1297 ft | 11 kts | 177° |
| 2026-04-30 19:47 | 48.68698 | 9.19982 | 1294 ft | 0 kts | 165° |
| 2026-04-30 19:48 | 48.68693 | 9.19984 | 1293 ft | 0 kts | 165° |
| 2026-04-30 19:48 | 48.68690 | 9.19985 | 1293 ft | 0 kts | 165° |
| 2026-04-30 19:48 | 48.68660 | 9.19997 | 1291 ft | 17 kts | 165° |
| 2026-04-30 19:49 | 48.68591 | 9.20099 | 1287 ft | 9 kts | 80° |
| 2026-04-30 19:49 | 48.68803 | 9.21219 | 1273 ft | 135 kts | 74° |
| 2026-04-30 19:49 | 48.69106 | 9.22816 | 1638 ft | 177 kts | 73° |
| 2026-04-30 19:50 | 48.69482 | 9.24739 | 2372 ft | 206 kts | 70° |
| 2026-04-30 19:50 | 48.69937 | 9.26996 | 3044 ft | 242 kts | 76° |
| 2026-04-30 19:50 | 48.70429 | 9.29524 | 4037 ft | 249 kts | 76° |
| 2026-04-30 19:50 | 48.70896 | 9.31951 | 5326 ft | 236 kts | 76° |
| 2026-04-30 19:51 | 48.71358 | 9.34402 | 6429 ft | 248 kts | 76° |
| 2026-04-30 19:51 | 48.71832 | 9.36960 | 7501 ft | 257 kts | 76° |
| 2026-04-30 19:51 | 48.72317 | 9.39604 | 8618 ft | 263 kts | 75° |
| 2026-04-30 19:51 | 48.72831 | 9.42306 | 9665 ft | 272 kts | 73° |
| 2026-04-30 19:52 | 48.73507 | 9.45043 | 10637 ft | 282 kts | 67° |
| 2026-04-30 19:52 | 48.74454 | 9.47682 | 11590 ft | 290 kts | 55° |
| 2026-04-30 19:52 | 48.75979 | 9.49817 | 12185 ft | 314 kts | 33° |
| 2026-04-30 19:52 | 48.78078 | 9.51114 | 12721 ft | 336 kts | 18° |
| 2026-04-30 19:53 | 48.80376 | 9.51848 | 13783 ft | 338 kts | 10° |
| 2026-04-30 19:53 | 48.82734 | 9.51959 | 14883 ft | 341 kts | 0° |
| 2026-04-30 19:53 | 48.85114 | 9.51637 | 15769 ft | 346 kts | 359° |
| 2026-04-30 19:53 | 48.87535 | 9.51409 | 16617 ft | 351 kts | 0° |
| 2026-04-30 19:54 | 48.89985 | 9.51192 | 17530 ft | 355 kts | 360° |
| 2026-04-30 19:54 | 48.92467 | 9.50949 | 18418 ft | 359 kts | 359° |
| 2026-04-30 19:54 | 48.94961 | 9.50464 | 19248 ft | 365 kts | 351° |
| 2026-04-30 19:54 | 48.97407 | 9.49296 | 20001 ft | 374 kts | 341° |
| 2026-04-30 19:55 | 48.99794 | 9.47642 | 20749 ft | 379 kts | 338° |
| 2026-04-30 19:55 | 49.02183 | 9.45881 | 21490 ft | 383 kts | 338° |
| 2026-04-30 19:55 | 49.04565 | 9.44116 | 22217 ft | 387 kts | 338° |
| 2026-04-30 19:55 | 49.07001 | 9.42316 | 22940 ft | 392 kts | 338° |
| 2026-04-30 19:56 | 49.09472 | 9.40493 | 23651 ft | 396 kts | 338° |
| 2026-04-30 19:56 | 49.11966 | 9.38653 | 24255 ft | 400 kts | 338° |
| 2026-04-30 19:56 | 49.14482 | 9.36796 | 24821 ft | 403 kts | 338° |
| 2026-04-30 19:56 | 49.17020 | 9.34922 | 25370 ft | 407 kts | 339° |
| 2026-04-30 19:57 | 49.19609 | 9.33139 | 25919 ft | 408 kts | 343° |
| 2026-04-30 19:57 | 49.22327 | 9.31890 | 26383 ft | 408 kts | 352° |
| 2026-04-30 19:57 | 49.25143 | 9.31302 | 26926 ft | 408 kts | 358° |
| 2026-04-30 19:57 | 49.27981 | 9.30969 | 27466 ft | 410 kts | 0° |
| 2026-04-30 19:58 | 49.30842 | 9.30740 | 27995 ft | 412 kts | 1° |
| 2026-04-30 19:58 | 49.33717 | 9.30565 | 28525 ft | 414 kts | 3° |
| 2026-04-30 19:58 | 49.36596 | 9.30738 | 29020 ft | 415 kts | 8° |
| 2026-04-30 19:58 | 49.39486 | 9.31101 | 29480 ft | 418 kts | 8° |
| 2026-04-30 19:59 | 49.42392 | 9.31514 | 29955 ft | 420 kts | 9° |
| 2026-04-30 19:59 | 49.45269 | 9.31946 | 30422 ft | 423 kts | 9° |
| 2026-04-30 19:59 | 49.51161 | 9.32844 | 31212 ft | 428 kts | 9° |
| 2026-04-30 20:00 | 49.54130 | 9.33295 | 31600 ft | 430 kts | 9° |
| 2026-04-30 20:00 | 49.57113 | 9.33744 | 31988 ft | 432 kts | 8° |
| 2026-04-30 20:00 | 49.60112 | 9.34191 | 32438 ft | 432 kts | 8° |
| 2026-04-30 20:00 | 49.63093 | 9.34632 | 32993 ft | 429 kts | 8° |
| 2026-04-30 20:01 | 49.69022 | 9.35509 | 34045 ft | 426 kts | 8° |
| 2026-04-30 20:01 | 49.71965 | 9.35947 | 34517 ft | 424 kts | 8° |
| 2026-04-30 20:01 | 49.74889 | 9.36553 | 34938 ft | 421 kts | 13° |
| 2026-04-30 20:02 | 49.80583 | 9.38540 | 35773 ft | 418 kts | 15° |
| 2026-04-30 20:02 | 49.83405 | 9.39607 | 36149 ft | 417 kts | 16° |
| 2026-04-30 20:03 | 49.89037 | 9.41786 | 36905 ft | 416 kts | 16° |
| 2026-04-30 20:03 | 49.91838 | 9.42876 | 37278 ft | 415 kts | 16° |
| 2026-04-30 20:03 | 49.94639 | 9.43964 | 37669 ft | 414 kts | 16° |
| 2026-04-30 20:03 | 49.97430 | 9.45047 | 38041 ft | 413 kts | 16° |
| 2026-04-30 20:04 | 50.00214 | 9.46126 | 38409 ft | 412 kts | 16° |
| 2026-04-30 20:04 | 50.02996 | 9.47204 | 38762 ft | 412 kts | 16° |
| 2026-04-30 20:04 | 50.05748 | 9.48219 | 39094 ft | 412 kts | 13° |
| 2026-04-30 20:05 | 50.11438 | 9.49439 | 39586 ft | 413 kts | 9° |
| 2026-04-30 20:05 | 50.14294 | 9.49943 | 39830 ft | 414 kts | 8° |
| 2026-04-30 20:05 | 50.20031 | 9.50894 | 40276 ft | 415 kts | 8° |
| 2026-04-30 20:06 | 50.24844 | 9.51685 | 40384 ft | 420 kts | 8° |
| 2026-04-30 20:06 | 50.30636 | 9.52647 | 40385 ft | 417 kts | 8° |
| 2026-04-30 20:07 | 50.36401 | 9.53616 | 40383 ft | 416 kts | 8° |
| 2026-04-30 20:08 | 50.45046 | 9.55080 | 40387 ft | 417 kts | 8° |
| 2026-04-30 20:08 | 50.50813 | 9.56059 | 40392 ft | 417 kts | 8° |
| 2026-04-30 20:09 | 50.56576 | 9.57040 | 40392 ft | 417 kts | 8° |
| 2026-04-30 20:09 | 50.65223 | 9.58514 | 40397 ft | 417 kts | 8° |
| 2026-04-30 20:10 | 50.73878 | 9.60006 | 40403 ft | 417 kts | 8° |
| 2026-04-30 20:11 | 50.82509 | 9.61665 | 40408 ft | 416 kts | 9° |
| 2026-04-30 20:11 | 50.88254 | 9.62794 | 40410 ft | 417 kts | 9° |
| 2026-04-30 20:12 | 50.96845 | 9.64473 | 40407 ft | 417 kts | 9° |
| 2026-04-30 20:13 | 51.02603 | 9.65598 | 40405 ft | 417 kts | 8° |
| 2026-04-30 20:13 | 51.08346 | 9.66721 | 40411 ft | 417 kts | 9° |
| 2026-04-30 20:14 | 51.14105 | 9.67851 | 40414 ft | 417 kts | 9° |
| 2026-04-30 20:14 | 51.19871 | 9.68983 | 40412 ft | 417 kts | 8° |
| 2026-04-30 20:15 | 51.25652 | 9.69988 | 40419 ft | 418 kts | 7° |
| 2026-04-30 20:15 | 51.31443 | 9.70904 | 40418 ft | 418 kts | 7° |
| 2026-04-30 20:16 | 51.37230 | 9.71823 | 40423 ft | 418 kts | 7° |
| 2026-04-30 20:16 | 51.43019 | 9.72758 | 40424 ft | 418 kts | 7° |
| 2026-04-30 20:17 | 51.48765 | 9.73720 | 40426 ft | 418 kts | 8° |
| 2026-04-30 20:17 | 51.54544 | 9.74801 | 40425 ft | 418 kts | 8° |
| 2026-04-30 20:18 | 51.60321 | 9.75913 | 40427 ft | 418 kts | 8° |
| 2026-04-30 20:18 | 51.66105 | 9.77020 | 40427 ft | 418 kts | 8° |
| 2026-04-30 20:19 | 51.71884 | 9.78120 | 40427 ft | 419 kts | 8° |
| 2026-04-30 20:19 | 51.77676 | 9.79222 | 40426 ft | 419 kts | 8° |
| 2026-04-30 20:20 | 51.83459 | 9.80325 | 40426 ft | 418 kts | 8° |
| 2026-04-30 20:20 | 51.89243 | 9.81435 | 40425 ft | 419 kts | 8° |
| 2026-04-30 20:21 | 51.95039 | 9.82557 | 40321 ft | 420 kts | 8° |
| 2026-04-30 20:21 | 51.97931 | 9.83117 | 40096 ft | 417 kts | 8° |
| 2026-04-30 20:21 | 52.00789 | 9.83671 | 39823 ft | 412 kts | 8° |
| 2026-04-30 20:21 | 52.03635 | 9.84224 | 39449 ft | 411 kts | 8° |
| 2026-04-30 20:22 | 52.06475 | 9.84777 | 39030 ft | 410 kts | 8° |
| 2026-04-30 20:22 | 52.09305 | 9.85330 | 38580 ft | 409 kts | 8° |
| 2026-04-30 20:22 | 52.12118 | 9.85879 | 38168 ft | 406 kts | 8° |
| 2026-04-30 20:22 | 52.14914 | 9.86426 | 37762 ft | 404 kts | 8° |
| 2026-04-30 20:23 | 52.17655 | 9.86963 | 37371 ft | 401 kts | 8° |
| 2026-04-30 20:23 | 52.20421 | 9.87504 | 36980 ft | 399 kts | 8° |
| 2026-04-30 20:23 | 52.23170 | 9.88050 | 36579 ft | 398 kts | 8° |
| 2026-04-30 20:23 | 52.25926 | 9.88639 | 35916 ft | 401 kts | 8° |
| 2026-04-30 20:24 | 52.28690 | 9.89243 | 35426 ft | 401 kts | 8° |
| 2026-04-30 20:24 | 52.31464 | 9.89848 | 34794 ft | 403 kts | 8° |
| 2026-04-30 20:24 | 52.34258 | 9.90456 | 34073 ft | 407 kts | 8° |
| 2026-04-30 20:24 | 52.37069 | 9.91067 | 33345 ft | 409 kts | 8° |
| 2026-04-30 20:25 | 52.42741 | 9.92298 | 31849 ft | 413 kts | 8° |
| 2026-04-30 20:25 | 52.45604 | 9.92920 | 31142 ft | 416 kts | 8° |
| 2026-04-30 20:26 | 52.51300 | 9.94160 | 30037 ft | 410 kts | 8° |
| 2026-04-30 20:26 | 52.56907 | 9.95383 | 28916 ft | 402 kts | 8° |
| 2026-04-30 20:26 | 52.59668 | 9.95987 | 28364 ft | 399 kts | 8° |
| 2026-04-30 20:27 | 52.65115 | 9.97180 | 27298 ft | 391 kts | 9° |
| 2026-04-30 20:27 | 52.70471 | 9.98357 | 26198 ft | 386 kts | 9° |
| 2026-04-30 20:28 | 52.75751 | 9.99520 | 25118 ft | 381 kts | 9° |
| 2026-04-30 20:28 | 52.80978 | 10.00674 | 24052 ft | 377 kts | 9° |
| 2026-04-30 20:29 | 52.86140 | 10.01816 | 22920 ft | 371 kts | 9° |
| 2026-04-30 20:30 | 52.93719 | 10.03498 | 21350 ft | 368 kts | 10° |
| 2026-04-30 20:30 | 53.01387 | 10.05207 | 19716 ft | 366 kts | 10° |
| 2026-04-30 20:31 | 53.08897 | 10.06884 | 18082 ft | 359 kts | 11° |
| 2026-04-30 20:32 | 53.16225 | 10.08528 | 16395 ft | 353 kts | 11° |
| 2026-04-30 20:32 | 53.21066 | 10.09617 | 15312 ft | 349 kts | 11° |
| 2026-04-30 20:33 | 53.23464 | 10.10157 | 14781 ft | 347 kts | 11° |
| 2026-04-30 20:33 | 53.28233 | 10.11234 | 13688 ft | 344 kts | 11° |
| 2026-04-30 20:33 | 53.30596 | 10.11769 | 13100 ft | 342 kts | 11° |
| 2026-04-30 20:34 | 53.35208 | 10.13351 | 11996 ft | 334 kts | 26° |
| 2026-04-30 20:34 | 53.39138 | 10.17089 | 10911 ft | 311 kts | 34° |
| 2026-04-30 20:35 | 53.40924 | 10.18906 | 10544 ft | 289 kts | 34° |
| 2026-04-30 20:35 | 53.42570 | 10.20572 | 10411 ft | 265 kts | 34° |
| 2026-04-30 20:35 | 53.45580 | 10.23590 | 10440 ft | 247 kts | 34° |
| 2026-04-30 20:36 | 53.47055 | 10.25065 | 10396 ft | 247 kts | 34° |
| 2026-04-30 20:36 | 53.48527 | 10.26538 | 10203 ft | 245 kts | 34° |
| 2026-04-30 20:36 | 53.51453 | 10.29466 | 9679 ft | 244 kts | 34° |
| 2026-04-30 20:37 | 53.52910 | 10.30921 | 9426 ft | 243 kts | 34° |
| 2026-04-30 20:37 | 53.54359 | 10.32368 | 9151 ft | 242 kts | 34° |
| 2026-04-30 20:37 | 53.55802 | 10.33814 | 8883 ft | 241 kts | 34° |
| 2026-04-30 20:37 | 53.57239 | 10.35271 | 8637 ft | 240 kts | 34° |
| 2026-04-30 20:38 | 53.58669 | 10.36722 | 8394 ft | 240 kts | 34° |
| 2026-04-30 20:38 | 53.60074 | 10.38145 | 8142 ft | 239 kts | 34° |
| 2026-04-30 20:38 | 53.61497 | 10.39586 | 7884 ft | 238 kts | 34° |
| 2026-04-30 20:39 | 53.64328 | 10.42447 | 7399 ft | 236 kts | 34° |
| 2026-04-30 20:39 | 53.65731 | 10.43869 | 7169 ft | 235 kts | 34° |
| 2026-04-30 20:39 | 53.67129 | 10.45270 | 6934 ft | 233 kts | 31° |
| 2026-04-30 20:40 | 53.70324 | 10.45309 | 6344 ft | 248 kts | 333° |
| 2026-04-30 20:40 | 53.71564 | 10.43285 | 6021 ft | 254 kts | 302° |
| 2026-04-30 20:40 | 53.72072 | 10.40449 | 5732 ft | 254 kts | 271° |
| 2026-04-30 20:41 | 53.70752 | 10.35126 | 5214 ft | 246 kts | 230° |
| 2026-04-30 20:41 | 53.69721 | 10.32895 | 5011 ft | 243 kts | 229° |
| 2026-04-30 20:41 | 53.68653 | 10.30637 | 4976 ft | 243 kts | 229° |
| 2026-04-30 20:41 | 53.67596 | 10.28408 | 4982 ft | 243 kts | 229° |
| 2026-04-30 20:42 | 53.66541 | 10.26183 | 4981 ft | 243 kts | 229° |
| 2026-04-30 20:42 | 53.65484 | 10.23956 | 4983 ft | 243 kts | 229° |
| 2026-04-30 20:42 | 53.63370 | 10.19505 | 5004 ft | 243 kts | 229° |
| 2026-04-30 20:43 | 53.62328 | 10.17313 | 4984 ft | 243 kts | 229° |
| 2026-04-30 20:43 | 53.61257 | 10.15063 | 4985 ft | 243 kts | 229° |
| 2026-04-30 20:43 | 53.60217 | 10.12877 | 5004 ft | 243 kts | 229° |
| 2026-04-30 20:44 | 53.58087 | 10.08414 | 4987 ft | 243 kts | 229° |
| 2026-04-30 20:44 | 53.57030 | 10.06198 | 4992 ft | 243 kts | 229° |
| 2026-04-30 20:44 | 53.54927 | 10.01752 | 4995 ft | 243 kts | 229° |
| 2026-04-30 20:45 | 53.52839 | 9.97331 | 4993 ft | 243 kts | 229° |
| 2026-04-30 20:45 | 53.51774 | 9.95077 | 4992 ft | 243 kts | 229° |
| 2026-04-30 20:45 | 53.50725 | 9.92854 | 4994 ft | 243 kts | 229° |
| 2026-04-30 20:46 | 53.47587 | 9.86216 | 4995 ft | 243 kts | 229° |
| 2026-04-30 20:46 | 53.46535 | 9.83995 | 4994 ft | 243 kts | 229° |
| 2026-04-30 20:47 | 53.44433 | 9.79558 | 4992 ft | 243 kts | 229° |
| 2026-04-30 20:47 | 53.43379 | 9.77336 | 4966 ft | 243 kts | 229° |
| 2026-04-30 20:48 | 53.41278 | 9.72910 | 4965 ft | 243 kts | 229° |
| 2026-04-30 20:48 | 53.40226 | 9.70694 | 4962 ft | 243 kts | 229° |
| 2026-04-30 20:48 | 53.39170 | 9.68475 | 4963 ft | 243 kts | 229° |
| 2026-04-30 20:48 | 53.38117 | 9.66260 | 4962 ft | 243 kts | 229° |
| 2026-04-30 20:49 | 53.37064 | 9.64049 | 4967 ft | 243 kts | 229° |
| 2026-04-30 20:49 | 53.36011 | 9.61836 | 4967 ft | 243 kts | 229° |
| 2026-04-30 20:49 | 53.34957 | 9.59621 | 4966 ft | 243 kts | 229° |
| 2026-04-30 20:50 | 53.33275 | 9.55872 | 4961 ft | 244 kts | 240° |
| 2026-04-30 20:50 | 53.32897 | 9.53117 | 4969 ft | 247 kts | 271° |
| 2026-04-30 20:50 | 53.33392 | 9.50397 | 4963 ft | 247 kts | 303° |
| 2026-04-30 20:50 | 53.34623 | 9.48472 | 4960 ft | 243 kts | 336° |
| 2026-04-30 20:51 | 53.36244 | 9.48081 | 4969 ft | 235 kts | 13° |
| 2026-04-30 20:51 | 53.38938 | 9.50868 | 4970 ft | 229 kts | 46° |
| 2026-04-30 20:51 | 53.40045 | 9.52770 | 4847 ft | 226 kts | 50° |
| 2026-04-30 20:52 | 53.41083 | 9.54766 | 4522 ft | 227 kts | 52° |
| 2026-04-30 20:52 | 53.42105 | 9.56788 | 4475 ft | 228 kts | 52° |
| 2026-04-30 20:52 | 53.44151 | 9.60856 | 4493 ft | 228 kts | 52° |
| 2026-04-30 20:53 | 53.45170 | 9.62893 | 4496 ft | 228 kts | 52° |
| 2026-04-30 20:53 | 53.46188 | 9.64933 | 4498 ft | 228 kts | 52° |
| 2026-04-30 20:53 | 53.47206 | 9.66973 | 4498 ft | 228 kts | 52° |
| 2026-04-30 20:54 | 53.49227 | 9.71024 | 4067 ft | 225 kts | 52° |
| 2026-04-30 20:54 | 53.50233 | 9.73044 | 3745 ft | 225 kts | 52° |
| 2026-04-30 20:54 | 53.51220 | 9.75024 | 3399 ft | 215 kts | 52° |
| 2026-04-30 20:55 | 53.53008 | 9.78612 | 2843 ft | 185 kts | 52° |
| 2026-04-30 20:55 | 53.53826 | 9.80259 | 2577 ft | 183 kts | 52° |
| 2026-04-30 20:55 | 53.54630 | 9.81878 | 2350 ft | 174 kts | 52° |
| 2026-04-30 20:56 | 53.56131 | 9.84901 | 1883 ft | 170 kts | 52° |
| 2026-04-30 20:56 | 53.56853 | 9.86349 | 1654 ft | 151 kts | 53° |
| 2026-04-30 20:56 | 53.58113 | 9.88870 | 1115 ft | 136 kts | 53° |
| 2026-04-30 20:57 | 53.58726 | 9.90084 | 937 ft | 131 kts | 52° |
| 2026-04-30 20:57 | 53.59289 | 9.91202 | 793 ft | 121 kts | 52° |
| 2026-04-30 20:57 | 53.59813 | 9.92290 | 670 ft | 120 kts | 53° |
| 2026-04-30 20:58 | 53.60892 | 9.94486 | 403 ft | 125 kts | 50° |
| 2026-04-30 20:58 | 53.61455 | 9.95623 | 251 ft | 127 kts | 50° |
| 2026-04-30 20:58 | 53.62014 | 9.96742 | 95 ft | 122 kts | 50° |
| 2026-04-30 20:58 | 53.62515 | 9.97761 | 45 ft | 92 kts | 50° |
| 2026-04-30 20:59 | 53.62975 | 9.98698 | 49 ft | 21 kts | 50° |
| 2026-04-30 20:59 | 53.63058 | 9.98881 | 50 ft | 24 kts | 59° |
| 2026-04-30 21:00 | 53.63091 | 9.99172 | 51 ft | 0 kts | 97° |
| 2026-04-30 21:00 | 53.63089 | 9.99187 | 51 ft | 0 kts | 97° |
| 2026-04-30 21:01 | 53.63089 | 9.99191 | 51 ft | 1 kts | 103° |
| 2026-04-30 21:01 | 53.63078 | 9.99224 | 48 ft | 0 kts | 124° |
| 2026-04-30 21:02 | 53.63076 | 9.99228 | 49 ft | 2 kts | 124° |
| 2026-04-30 21:02 | 53.63059 | 9.99259 | 51 ft | 5 kts | 135° |
| 2026-04-30 21:03 | 53.63058 | 9.99260 | 51 ft | 0 kts | 136° |
| 2026-04-30 21:03 | 53.63056 | 9.99264 | 49 ft | 2 kts | 136° |
| 2026-04-30 21:04 | 53.63043 | 9.99257 | 51 ft | 5 kts | 205° |
| 2026-04-30 21:04 | 53.62969 | 9.99115 | 47 ft | 25 kts | 230° |
| 2026-04-30 21:04 | 53.62828 | 9.98937 | 51 ft | 5 kts | 155° |
| 2026-04-30 21:05 | 53.62782 | 9.98977 | 50 ft | 10 kts | 152° |
| 2026-04-30 21:05 | 53.62758 | 9.99028 | 51 ft | 3 kts | 90° |
| 2026-04-30 21:05 | 53.62764 | 9.99074 | 51 ft | 4 kts | 68° |
| 2026-04-30 21:05 | 53.62777 | 9.99119 | 50 ft | 0 kts | 64° |